sensor_id;sensor_type;location;lat;lon;timestamp;pressure;altitude;pressure_sealevel;temperature;humidity
4024;BME280;2026;51.002;13.668;2023-11-19T00:01:48;99109.13;;;2.83;80.80
4024;BME280;2026;51.002;13.668;2023-11-19T00:06:52;99084.75;;;2.92;80.97
4024;BME280;2026;51.002;13.668;2023-11-19T00:11:56;99057.72;;;3.01;79.93
4024;BME280;2026;51.002;13.668;2023-11-19T00:16:59;99052.22;;;2.86;79.80
4024;BME280;2026;51.002;13.668;2023-11-19T00:22:03;99042.19;;;2.91;80.42
4024;BME280;2026;51.002;13.668;2023-11-19T00:27:07;99045.44;;;2.93;79.73
4024;BME280;2026;51.002;13.668;2023-11-19T00:32:11;99030.38;;;2.87;80.10
4024;BME280;2026;51.002;13.668;2023-11-19T00:37:14;99025.03;;;2.53;81.31
4024;BME280;2026;51.002;13.668;2023-11-19T00:42:19;99031.47;;;2.76;81.17
4024;BME280;2026;51.002;13.668;2023-11-19T00:47:22;99015.69;;;2.86;80.88
4024;BME280;2026;51.002;13.668;2023-11-19T00:52:25;98995.97;;;3.10;79.39
4024;BME280;2026;51.002;13.668;2023-11-19T00:57:30;99001.63;;;2.79;80.58
4024;BME280;2026;51.002;13.668;2023-11-19T01:02:34;98989.31;;;2.71;80.63
4024;BME280;2026;51.002;13.668;2023-11-19T01:07:38;98970.66;;;2.84;80.16
4024;BME280;2026;51.002;13.668;2023-11-19T01:12:42;98957.28;;;3.05;79.15
4024;BME280;2026;51.002;13.668;2023-11-19T01:17:45;98932.88;;;3.14;79.26
4024;BME280;2026;51.002;13.668;2023-11-19T01:22:51;98925.09;;;3.23;78.87
4024;BME280;2026;51.002;13.668;2023-11-19T01:27:56;98909.59;;;3.29;78.60
4024;BME280;2026;51.002;13.668;2023-11-19T01:33:00;98888.75;;;3.38;78.35
4024;BME280;2026;51.002;13.668;2023-11-19T01:38:03;98889.59;;;3.46;77.76
4024;BME280;2026;51.002;13.668;2023-11-19T01:43:08;98895.34;;;3.58;76.74
4024;BME280;2026;51.002;13.668;2023-11-19T01:48:14;98886.34;;;3.53;78.09
4024;BME280;2026;51.002;13.668;2023-11-19T01:53:17;98867.56;;;3.65;76.50
4024;BME280;2026;51.002;13.668;2023-11-19T01:58:22;98857.66;;;3.85;76.41
4024;BME280;2026;51.002;13.668;2023-11-19T02:03:26;98833.16;;;4.03;75.72
4024;BME280;2026;51.002;13.668;2023-11-19T02:08:31;98805.06;;;3.80;77.03
4024;BME280;2026;51.002;13.668;2023-11-19T02:13:37;98809.16;;;3.91;76.68
4024;BME280;2026;51.002;13.668;2023-11-19T02:18:41;98814.38;;;3.99;76.84
4024;BME280;2026;51.002;13.668;2023-11-19T02:23:45;98769.16;;;3.74;78.09
4024;BME280;2026;51.002;13.668;2023-11-19T02:28:49;98761.31;;;3.66;77.73
4024;BME280;2026;51.002;13.668;2023-11-19T02:33:53;98747.22;;;3.50;77.80
4024;BME280;2026;51.002;13.668;2023-11-19T02:38:56;98735.34;;;3.56;78.83
4024;BME280;2026;51.002;13.668;2023-11-19T02:44:01;98713.91;;;3.85;77.54
4024;BME280;2026;51.002;13.668;2023-11-19T02:49:04;98719.34;;;3.59;78.20
4024;BME280;2026;51.002;13.668;2023-11-19T02:54:08;98707.69;;;3.95;76.29
4024;BME280;2026;51.002;13.668;2023-11-19T02:59:13;98689.09;;;3.81;75.70
4024;BME280;2026;51.002;13.668;2023-11-19T03:04:29;98666.41;;;3.82;76.14
4024;BME280;2026;51.002;13.668;2023-11-19T03:09:32;98662.66;;;3.84;76.85
4024;BME280;2026;51.002;13.668;2023-11-19T03:14:38;98653.78;;;3.94;76.64
4024;BME280;2026;51.002;13.668;2023-11-19T03:19:42;98638.91;;;4.02;76.14
4024;BME280;2026;51.002;13.668;2023-11-19T03:24:45;98643.59;;;4.15;75.16
4024;BME280;2026;51.002;13.668;2023-11-19T03:29:49;98620.75;;;4.09;75.18
4024;BME280;2026;51.002;13.668;2023-11-19T03:34:52;98621.53;;;4.18;74.79
4024;BME280;2026;51.002;13.668;2023-11-19T03:39:56;98622.56;;;4.00;75.80
4024;BME280;2026;51.002;13.668;2023-11-19T03:45:06;98591.56;;;4.29;75.21
4024;BME280;2026;51.002;13.668;2023-11-19T03:50:10;98581.97;;;4.21;75.77
4024;BME280;2026;51.002;13.668;2023-11-19T03:55:13;98582.94;;;4.20;76.55
4024;BME280;2026;51.002;13.668;2023-11-19T04:00:18;98547.25;;;4.35;75.70
4024;BME280;2026;51.002;13.668;2023-11-19T04:05:22;98556.13;;;4.26;76.34
4024;BME280;2026;51.002;13.668;2023-11-19T04:10:25;98561.53;;;4.24;76.88
4024;BME280;2026;51.002;13.668;2023-11-19T04:15:32;98537.09;;;4.09;77.59
4024;BME280;2026;51.002;13.668;2023-11-19T04:20:35;98534.19;;;4.35;76.62
4024;BME280;2026;51.002;13.668;2023-11-19T04:25:39;98563.28;;;4.32;77.01
4024;BME280;2026;51.002;13.668;2023-11-19T04:30:43;98533.88;;;4.30;78.52
4024;BME280;2026;51.002;13.668;2023-11-19T04:35:47;98527.81;;;4.30;79.39
4024;BME280;2026;51.002;13.668;2023-11-19T04:40:50;98511.13;;;4.39;80.63
4024;BME280;2026;51.002;13.668;2023-11-19T04:45:55;98516.91;;;4.26;81.61
4024;BME280;2026;51.002;13.668;2023-11-19T04:50:58;98496.13;;;4.01;83.55
4024;BME280;2026;51.002;13.668;2023-11-19T04:56:07;98491.97;;;4.38;81.42
4024;BME280;2026;51.002;13.668;2023-11-19T05:01:14;98484.00;;;4.32;82.24
4024;BME280;2026;51.002;13.668;2023-11-19T05:06:19;98475.88;;;4.27;83.25
4024;BME280;2026;51.002;13.668;2023-11-19T05:11:23;98474.84;;;4.36;82.72
4024;BME280;2026;51.002;13.668;2023-11-19T05:16:27;98453.56;;;4.16;84.21
4024;BME280;2026;51.002;13.668;2023-11-19T05:21:30;98451.00;;;4.07;85.20
4024;BME280;2026;51.002;13.668;2023-11-19T05:26:33;98444.09;;;4.15;85.38
4024;BME280;2026;51.002;13.668;2023-11-19T05:31:38;98439.72;;;4.30;83.72
4024;BME280;2026;51.002;13.668;2023-11-19T05:36:45;98435.56;;;4.44;83.71
4024;BME280;2026;51.002;13.668;2023-11-19T05:41:48;98435.41;;;4.60;83.48
4024;BME280;2026;51.002;13.668;2023-11-19T05:46:53;98424.84;;;4.54;84.60
4024;BME280;2026;51.002;13.668;2023-11-19T05:51:56;98412.66;;;4.61;84.98
4024;BME280;2026;51.002;13.668;2023-11-19T05:56:59;98409.41;;;4.44;86.80
4024;BME280;2026;51.002;13.668;2023-11-19T06:02:04;98409.19;;;4.84;85.06
4024;BME280;2026;51.002;13.668;2023-11-19T06:07:07;98401.75;;;4.57;86.90
4024;BME280;2026;51.002;13.668;2023-11-19T06:12:10;98391.66;;;4.69;86.89
4024;BME280;2026;51.002;13.668;2023-11-19T06:17:15;98374.88;;;4.64;87.57
4024;BME280;2026;51.002;13.668;2023-11-19T06:22:18;98362.88;;;4.84;87.34
4024;BME280;2026;51.002;13.668;2023-11-19T06:27:21;98359.19;;;4.93;87.40
4024;BME280;2026;51.002;13.668;2023-11-19T06:32:26;98333.28;;;4.98;87.73
4024;BME280;2026;51.002;13.668;2023-11-19T06:37:30;98344.91;;;5.11;87.33
4024;BME280;2026;51.002;13.668;2023-11-19T06:42:33;98346.81;;;5.17;87.18
4024;BME280;2026;51.002;13.668;2023-11-19T06:47:37;98344.59;;;5.35;87.25
4024;BME280;2026;51.002;13.668;2023-11-19T06:52:40;98329.78;;;5.64;86.63
4024;BME280;2026;51.002;13.668;2023-11-19T06:57:43;98337.09;;;5.90;86.13
4024;BME280;2026;51.002;13.668;2023-11-19T07:02:48;98343.38;;;5.89;86.74
4024;BME280;2026;51.002;13.668;2023-11-19T07:07:52;98318.84;;;5.97;87.16
4024;BME280;2026;51.002;13.668;2023-11-19T07:12:56;98327.09;;;6.16;87.30
4024;BME280;2026;51.002;13.668;2023-11-19T07:18:00;98344.41;;;6.38;86.34
4024;BME280;2026;51.002;13.668;2023-11-19T07:23:04;98348.28;;;6.42;86.64
4024;BME280;2026;51.002;13.668;2023-11-19T07:28:07;98369.94;;;6.51;86.81
4024;BME280;2026;51.002;13.668;2023-11-19T07:33:13;98370.22;;;6.63;86.96
4024;BME280;2026;51.002;13.668;2023-11-19T07:38:16;98363.31;;;6.83;86.47
4024;BME280;2026;51.002;13.668;2023-11-19T07:43:20;98359.75;;;7.05;85.87
4024;BME280;2026;51.002;13.668;2023-11-19T07:48:24;98360.63;;;7.12;85.95
4024;BME280;2026;51.002;13.668;2023-11-19T07:53:27;98362.47;;;7.25;85.34
4024;BME280;2026;51.002;13.668;2023-11-19T07:58:31;98377.72;;;7.43;85.50
4024;BME280;2026;51.002;13.668;2023-11-19T08:03:35;98368.22;;;7.42;85.30
4024;BME280;2026;51.002;13.668;2023-11-19T08:08:39;98392.31;;;7.52;85.11
4024;BME280;2026;51.002;13.668;2023-11-19T08:13:42;98379.59;;;7.62;85.48
4024;BME280;2026;51.002;13.668;2023-11-19T08:18:46;98386.34;;;7.78;85.26
4024;BME280;2026;51.002;13.668;2023-11-19T08:23:50;98366.13;;;7.92;84.67
4024;BME280;2026;51.002;13.668;2023-11-19T08:28:53;98367.78;;;8.13;83.52
4024;BME280;2026;51.002;13.668;2023-11-19T08:33:57;98357.06;;;8.28;83.34
4024;BME280;2026;51.002;13.668;2023-11-19T08:39:00;98359.22;;;8.98;81.47
4024;BME280;2026;51.002;13.668;2023-11-19T08:44:04;98360.19;;;9.23;80.19
4024;BME280;2026;51.002;13.668;2023-11-19T08:49:10;98370.03;;;9.41;79.83
4024;BME280;2026;51.002;13.668;2023-11-19T08:54:13;98358.56;;;9.16;80.32
4024;BME280;2026;51.002;13.668;2023-11-19T08:59:16;98387.00;;;9.00;82.62
4024;BME280;2026;51.002;13.668;2023-11-19T09:04:22;98406.84;;;9.10;81.73
4024;BME280;2026;51.002;13.668;2023-11-19T09:09:25;98410.09;;;8.98;82.42
4024;BME280;2026;51.002;13.668;2023-11-19T09:14:29;98392.66;;;9.11;81.85
4024;BME280;2026;51.002;13.668;2023-11-19T09:19:33;98403.38;;;9.16;81.34
4024;BME280;2026;51.002;13.668;2023-11-19T09:24:37;98392.63;;;9.17;82.13
4024;BME280;2026;51.002;13.668;2023-11-19T09:29:40;98404.19;;;9.16;81.87
4024;BME280;2026;51.002;13.668;2023-11-19T09:34:46;98396.22;;;9.30;81.88
4024;BME280;2026;51.002;13.668;2023-11-19T09:39:49;98390.72;;;9.38;81.66
4024;BME280;2026;51.002;13.668;2023-11-19T09:44:53;98410.72;;;9.66;80.73
4024;BME280;2026;51.002;13.668;2023-11-19T09:49:59;98422.25;;;9.65;80.15
4024;BME280;2026;51.002;13.668;2023-11-19T09:55:02;98411.91;;;9.70;79.34
4024;BME280;2026;51.002;13.668;2023-11-19T10:00:06;98415.53;;;9.75;78.69
4024;BME280;2026;51.002;13.668;2023-11-19T10:05:13;98416.44;;;9.94;78.63
4024;BME280;2026;51.002;13.668;2023-11-19T10:10:17;98431.41;;;10.07;78.06
4024;BME280;2026;51.002;13.668;2023-11-19T10:15:22;98423.59;;;9.87;78.03
4024;BME280;2026;51.002;13.668;2023-11-19T10:20:27;98406.47;;;10.03;77.40
4024;BME280;2026;51.002;13.668;2023-11-19T10:25:31;98409.47;;;10.07;77.37
4024;BME280;2026;51.002;13.668;2023-11-19T10:30:35;98416.63;;;10.00;77.33
4024;BME280;2026;51.002;13.668;2023-11-19T10:35:53;98413.91;;;10.13;77.58
4024;BME280;2026;51.002;13.668;2023-11-19T10:41:01;98406.53;;;10.22;77.45
4024;BME280;2026;51.002;13.668;2023-11-19T10:46:11;98390.75;;;10.47;75.80
4024;BME280;2026;51.002;13.668;2023-11-19T10:51:19;98391.47;;;10.54;76.08
4024;BME280;2026;51.002;13.668;2023-11-19T10:56:25;98396.59;;;10.49;75.96
4024;BME280;2026;51.002;13.668;2023-11-19T11:01:38;98409.88;;;10.67;75.33
4024;BME280;2026;51.002;13.668;2023-11-19T11:06:44;98400.13;;;10.68;76.10
4024;BME280;2026;51.002;13.668;2023-11-19T11:11:47;98395.31;;;10.58;76.20
4024;BME280;2026;51.002;13.668;2023-11-19T11:16:51;98379.31;;;10.53;75.96
4024;BME280;2026;51.002;13.668;2023-11-19T11:21:58;98387.06;;;10.73;75.33
4024;BME280;2026;51.002;13.668;2023-11-19T11:27:40;98393.00;;;10.68;74.56
4024;BME280;2026;51.002;13.668;2023-11-19T11:32:54;98394.19;;;10.73;74.48
4024;BME280;2026;51.002;13.668;2023-11-19T11:38:07;98402.56;;;10.69;74.30
4024;BME280;2026;51.002;13.668;2023-11-19T11:43:44;98395.50;;;10.82;73.41
4024;BME280;2026;51.002;13.668;2023-11-19T11:48:48;98390.13;;;10.70;73.03
4024;BME280;2026;51.002;13.668;2023-11-19T11:53:54;98385.13;;;10.62;73.35
4024;BME280;2026;51.002;13.668;2023-11-19T11:58:57;98378.34;;;10.73;72.98
4024;BME280;2026;51.002;13.668;2023-11-19T12:04:01;98372.25;;;10.90;71.74
4024;BME280;2026;51.002;13.668;2023-11-19T12:09:06;98379.16;;;11.10;70.35
4024;BME280;2026;51.002;13.668;2023-11-19T12:14:10;98371.50;;;11.57;69.44
4024;BME280;2026;51.002;13.668;2023-11-19T12:19:14;98364.13;;;11.90;68.30
4024;BME280;2026;51.002;13.668;2023-11-19T12:24:19;98348.34;;;12.02;67.13
4024;BME280;2026;51.002;13.668;2023-11-19T12:29:22;98342.63;;;11.86;66.45
4024;BME280;2026;51.002;13.668;2023-11-19T12:34:25;98335.13;;;11.83;66.65
4024;BME280;2026;51.002;13.668;2023-11-19T12:39:31;98328.31;;;11.75;66.92
4024;BME280;2026;51.002;13.668;2023-11-19T12:44:34;98321.63;;;11.73;66.58
4024;BME280;2026;51.002;13.668;2023-11-19T12:49:37;98317.63;;;11.70;66.47
4024;BME280;2026;51.002;13.668;2023-11-19T12:54:42;98311.09;;;11.54;66.72
4024;BME280;2026;51.002;13.668;2023-11-19T12:59:54;98314.59;;;11.67;65.60
4024;BME280;2026;51.002;13.668;2023-11-19T13:04:58;98313.56;;;11.68;66.18
4024;BME280;2026;51.002;13.668;2023-11-19T13:10:03;98322.22;;;11.75;65.43
4024;BME280;2026;51.002;13.668;2023-11-19T13:15:22;98317.72;;;11.63;64.76
4024;BME280;2026;51.002;13.668;2023-11-19T13:20:26;98314.63;;;11.48;65.86
4024;BME280;2026;51.002;13.668;2023-11-19T13:25:31;98313.56;;;11.37;64.35
4024;BME280;2026;51.002;13.668;2023-11-19T13:30:34;98317.47;;;11.35;64.08
4024;BME280;2026;51.002;13.668;2023-11-19T13:35:38;98316.25;;;11.19;63.71
4024;BME280;2026;51.002;13.668;2023-11-19T13:40:43;98320.09;;;11.35;61.88
4024;BME280;2026;51.002;13.668;2023-11-19T13:45:46;98318.81;;;11.25;62.50
4024;BME280;2026;51.002;13.668;2023-11-19T13:50:50;98303.09;;;11.31;61.30
4024;BME280;2026;51.002;13.668;2023-11-19T13:55:54;98328.34;;;11.26;62.78
4024;BME280;2026;51.002;13.668;2023-11-19T14:00:57;98333.72;;;11.20;63.37
4024;BME280;2026;51.002;13.668;2023-11-19T14:06:01;98336.44;;;11.13;63.64
4024;BME280;2026;51.002;13.668;2023-11-19T14:11:06;98328.38;;;11.08;63.07
4024;BME280;2026;51.002;13.668;2023-11-19T14:16:09;98344.44;;;11.06;62.72
4024;BME280;2026;51.002;13.668;2023-11-19T14:21:14;98349.66;;;11.13;63.04
4024;BME280;2026;51.002;13.668;2023-11-19T14:26:19;98345.72;;;11.04;63.40
4024;BME280;2026;51.002;13.668;2023-11-19T14:31:22;98348.09;;;11.05;63.57
4024;BME280;2026;51.002;13.668;2023-11-19T14:36:26;98354.00;;;10.89;64.81
4024;BME280;2026;51.002;13.668;2023-11-19T14:41:30;98356.72;;;10.82;64.64
4024;BME280;2026;51.002;13.668;2023-11-19T14:46:33;98343.50;;;10.82;64.65
4024;BME280;2026;51.002;13.668;2023-11-19T14:51:37;98350.22;;;10.78;64.52
4024;BME280;2026;51.002;13.668;2023-11-19T14:56:42;98352.66;;;10.80;65.02
4024;BME280;2026;51.002;13.668;2023-11-19T15:01:45;98337.81;;;10.79;65.33
4024;BME280;2026;51.002;13.668;2023-11-19T15:06:48;98332.44;;;10.67;65.01
4024;BME280;2026;51.002;13.668;2023-11-19T15:11:54;98338.44;;;10.56;65.37
4024;BME280;2026;51.002;13.668;2023-11-19T15:17:00;98341.16;;;10.49;68.11
4024;BME280;2026;51.002;13.668;2023-11-19T15:22:03;98334.31;;;10.41;66.87
4024;BME280;2026;51.002;13.668;2023-11-19T15:27:09;98345.31;;;10.38;66.13
4024;BME280;2026;51.002;13.668;2023-11-19T15:32:15;98333.78;;;10.26;66.53
4024;BME280;2026;51.002;13.668;2023-11-19T15:37:19;98344.75;;;10.29;65.85
4024;BME280;2026;51.002;13.668;2023-11-19T15:42:24;98352.69;;;10.23;66.20
4024;BME280;2026;51.002;13.668;2023-11-19T15:47:27;98347.53;;;10.09;66.52
4024;BME280;2026;51.002;13.668;2023-11-19T15:52:33;98344.72;;;10.04;66.43
4024;BME280;2026;51.002;13.668;2023-11-19T15:57:37;98344.56;;;9.99;66.82
4024;BME280;2026;51.002;13.668;2023-11-19T16:02:40;98347.78;;;10.01;66.46
4024;BME280;2026;51.002;13.668;2023-11-19T16:07:44;98356.09;;;10.05;66.51
4024;BME280;2026;51.002;13.668;2023-11-19T16:12:48;98352.91;;;9.96;66.76
4024;BME280;2026;51.002;13.668;2023-11-19T16:17:51;98353.06;;;10.01;66.56
4024;BME280;2026;51.002;13.668;2023-11-19T16:22:56;98343.44;;;9.88;66.96
4024;BME280;2026;51.002;13.668;2023-11-19T16:28:02;98343.44;;;9.88;67.15
4024;BME280;2026;51.002;13.668;2023-11-19T16:33:06;98351.56;;;9.87;67.07
4024;BME280;2026;51.002;13.668;2023-11-19T16:38:21;98360.50;;;9.79;66.58
4024;BME280;2026;51.002;13.668;2023-11-19T16:43:26;98355.19;;;9.86;66.90
4024;BME280;2026;51.002;13.668;2023-11-19T16:48:31;98351.63;;;9.73;67.06
4024;BME280;2026;51.002;13.668;2023-11-19T16:53:34;98366.03;;;9.71;66.67
4024;BME280;2026;51.002;13.668;2023-11-19T16:58:39;98362.97;;;9.74;66.58
4024;BME280;2026;51.002;13.668;2023-11-19T17:03:43;98367.09;;;9.70;66.19
4024;BME280;2026;51.002;13.668;2023-11-19T17:08:47;98359.97;;;9.70;65.84
4024;BME280;2026;51.002;13.668;2023-11-19T17:13:51;98354.44;;;9.78;65.39
4024;BME280;2026;51.002;13.668;2023-11-19T17:18:55;98359.97;;;9.70;65.37
4024;BME280;2026;51.002;13.668;2023-11-19T17:23:58;98358.88;;;9.78;65.29
4024;BME280;2026;51.002;13.668;2023-11-19T17:29:03;98367.81;;;9.84;64.60
4024;BME280;2026;51.002;13.668;2023-11-19T17:34:06;98371.31;;;9.71;64.91
4024;BME280;2026;51.002;13.668;2023-11-19T17:39:10;98371.72;;;9.68;64.86
4024;BME280;2026;51.002;13.668;2023-11-19T17:44:14;98370.97;;;9.60;65.27
4024;BME280;2026;51.002;13.668;2023-11-19T17:49:17;98380.00;;;9.78;64.42
4024;BME280;2026;51.002;13.668;2023-11-19T17:54:21;98379.22;;;9.71;64.51
4024;BME280;2026;51.002;13.668;2023-11-19T17:59:25;98379.44;;;9.69;64.60
4024;BME280;2026;51.002;13.668;2023-11-19T18:04:28;98388.22;;;9.56;64.79
4024;BME280;2026;51.002;13.668;2023-11-19T18:09:33;98375.25;;;9.62;64.62
4024;BME280;2026;51.002;13.668;2023-11-19T18:14:38;98365.47;;;9.62;64.46
4024;BME280;2026;51.002;13.668;2023-11-19T18:19:44;98370.16;;;9.60;65.13
4024;BME280;2026;51.002;13.668;2023-11-19T18:24:47;98367.94;;;9.57;65.16
4024;BME280;2026;51.002;13.668;2023-11-19T18:29:52;98380.72;;;9.60;65.50
4024;BME280;2026;51.002;13.668;2023-11-19T18:34:56;98385.16;;;9.59;65.12
4024;BME280;2026;51.002;13.668;2023-11-19T18:39:59;98377.50;;;9.51;65.24
4024;BME280;2026;51.002;13.668;2023-11-19T18:45:05;98390.94;;;9.36;65.49
4024;BME280;2026;51.002;13.668;2023-11-19T18:50:10;98387.88;;;9.39;65.63
4024;BME280;2026;51.002;13.668;2023-11-19T18:55:13;98390.56;;;9.33;65.46
4024;BME280;2026;51.002;13.668;2023-11-19T19:00:19;98396.38;;;9.41;64.92
4024;BME280;2026;51.002;13.668;2023-11-19T19:05:23;98394.44;;;9.23;65.79
4024;BME280;2026;51.002;13.668;2023-11-19T19:10:27;98384.47;;;9.32;65.63
4024;BME280;2026;51.002;13.668;2023-11-19T19:15:32;98389.75;;;9.32;66.08
4024;BME280;2026;51.002;13.668;2023-11-19T19:20:35;98378.97;;;9.40;65.74
4024;BME280;2026;51.002;13.668;2023-11-19T19:25:38;98379.56;;;9.42;65.71
4024;BME280;2026;51.002;13.668;2023-11-19T19:30:43;98378.13;;;9.53;65.68
4024;BME280;2026;51.002;13.668;2023-11-19T19:35:46;98374.22;;;9.56;65.99
4024;BME280;2026;51.002;13.668;2023-11-19T19:40:50;98391.19;;;9.73;66.64
4024;BME280;2026;51.002;13.668;2023-11-19T19:45:54;98393.84;;;9.73;65.11
4024;BME280;2026;51.002;13.668;2023-11-19T19:50:57;98397.31;;;9.67;65.60
4024;BME280;2026;51.002;13.668;2023-11-19T19:56:00;98406.41;;;9.71;65.77
4024;BME280;2026;51.002;13.668;2023-11-19T20:01:05;98405.84;;;9.63;66.47
4024;BME280;2026;51.002;13.668;2023-11-19T20:06:10;98404.63;;;9.65;66.38
4024;BME280;2026;51.002;13.668;2023-11-19T20:11:13;98397.47;;;9.72;66.44
4024;BME280;2026;51.002;13.668;2023-11-19T20:16:18;98400.75;;;9.68;66.42
4024;BME280;2026;51.002;13.668;2023-11-19T20:21:21;98411.09;;;9.69;66.49
4024;BME280;2026;51.002;13.668;2023-11-19T20:26:30;98413.41;;;9.52;67.45
4024;BME280;2026;51.002;13.668;2023-11-19T20:31:39;98418.84;;;9.57;67.54
4024;BME280;2026;51.002;13.668;2023-11-19T20:36:42;98420.28;;;9.60;67.44
4024;BME280;2026;51.002;13.668;2023-11-19T20:41:45;98426.28;;;9.74;67.30
4024;BME280;2026;51.002;13.668;2023-11-19T20:46:50;98427.16;;;9.61;68.02
4024;BME280;2026;51.002;13.668;2023-11-19T20:51:53;98426.31;;;9.67;68.31
4024;BME280;2026;51.002;13.668;2023-11-19T20:56:56;98423.72;;;9.60;70.16
4024;BME280;2026;51.002;13.668;2023-11-19T21:02:02;98409.72;;;9.60;70.72
4024;BME280;2026;51.002;13.668;2023-11-19T21:07:05;98399.84;;;9.42;72.03
4024;BME280;2026;51.002;13.668;2023-11-19T21:12:09;98404.31;;;9.35;72.41
4024;BME280;2026;51.002;13.668;2023-11-19T21:17:13;98405.91;;;9.49;74.76
4024;BME280;2026;51.002;13.668;2023-11-19T21:22:21;98408.56;;;9.42;73.18
4024;BME280;2026;51.002;13.668;2023-11-19T21:27:24;98399.44;;;9.45;72.75
4024;BME280;2026;51.002;13.668;2023-11-19T21:32:30;98402.31;;;9.37;72.56
4024;BME280;2026;51.002;13.668;2023-11-19T21:37:34;98392.78;;;9.36;72.67
4024;BME280;2026;51.002;13.668;2023-11-19T21:42:37;98402.09;;;9.38;72.90
4024;BME280;2026;51.002;13.668;2023-11-19T21:47:42;98399.66;;;9.44;72.05
4024;BME280;2026;51.002;13.668;2023-11-19T21:52:45;98400.84;;;9.48;71.62
4024;BME280;2026;51.002;13.668;2023-11-19T21:57:48;98388.44;;;9.48;72.16
4024;BME280;2026;51.002;13.668;2023-11-19T22:02:53;98392.75;;;9.42;73.92
4024;BME280;2026;51.002;13.668;2023-11-19T22:07:56;98381.63;;;9.34;73.79
4024;BME280;2026;51.002;13.668;2023-11-19T22:13:19;98381.84;;;9.32;74.01
4024;BME280;2026;51.002;13.668;2023-11-19T22:18:23;98382.63;;;9.33;74.43
4024;BME280;2026;51.002;13.668;2023-11-19T22:23:26;98377.81;;;9.23;73.78
4024;BME280;2026;51.002;13.668;2023-11-19T22:28:30;98368.84;;;9.37;73.98
4024;BME280;2026;51.002;13.668;2023-11-19T22:33:36;98364.38;;;9.31;74.81
4024;BME280;2026;51.002;13.668;2023-11-19T22:38:40;98371.09;;;9.34;74.53
4024;BME280;2026;51.002;13.668;2023-11-19T22:43:43;98365.22;;;9.32;74.52
4024;BME280;2026;51.002;13.668;2023-11-19T22:48:48;98356.88;;;9.35;73.98
4024;BME280;2026;51.002;13.668;2023-11-19T22:53:54;98357.47;;;9.44;73.71
4024;BME280;2026;51.002;13.668;2023-11-19T22:58:58;98368.59;;;9.46;73.00
4024;BME280;2026;51.002;13.668;2023-11-19T23:04:02;98362.13;;;9.35;73.66
4024;BME280;2026;51.002;13.668;2023-11-19T23:09:06;98362.13;;;9.41;73.25
4024;BME280;2026;51.002;13.668;2023-11-19T23:14:09;98364.53;;;9.43;73.63
4024;BME280;2026;51.002;13.668;2023-11-19T23:19:16;98364.53;;;9.43;74.00
4024;BME280;2026;51.002;13.668;2023-11-19T23:24:19;98363.97;;;9.34;73.83
4024;BME280;2026;51.002;13.668;2023-11-19T23:29:22;98365.97;;;9.46;72.68
4024;BME280;2026;51.002;13.668;2023-11-19T23:34:28;98353.59;;;9.46;72.60
4024;BME280;2026;51.002;13.668;2023-11-19T23:39:34;98350.78;;;9.41;71.94
4024;BME280;2026;51.002;13.668;2023-11-19T23:44:37;98361.28;;;9.48;71.79
4024;BME280;2026;51.002;13.668;2023-11-19T23:49:42;98350.34;;;9.44;70.71
4024;BME280;2026;51.002;13.668;2023-11-19T23:54:46;98371.44;;;9.44;71.03
4024;BME280;2026;51.002;13.668;2023-11-19T23:59:49;98362.94;;;9.42;71.69
